Greenwood, Washington
Current Conditions -  °F | °C
As of 10:53 AM on Wednesday 26 Nov 2014 (Local Time) from KBFI Reporting Station
Overcast Overcast  
Wind Chill: 61°   Ceiling: 6000
Heat Index: 61°   Visibility: 10mi
Dew Point: 52°   Wind: 7mph
Humidity: 72%   Direction: 150°SSE
Pressure: 30.1"   Gusts: NA
Location:  47.6716°N, 122.341°W
Report Text: KBFI 261853Z 15006KT 10SM FEW030 BKN060 OVC200 16/11 A3010 RMK AO2 SLP191 T01610111
Loading
Personal Weather Stations






























Interactive Weather Map New forecast layout! Learn more

10-Day Weather Forecast

Advertisements
Track Severe Weather on mobile